sensor_id;sensor_type;location;lat;lon;timestamp;P1;durP1;ratioP1;P2;durP2;ratioP2
15281;SDS011;7742;44.320;19.820;2023-04-03T00:00:50;18.47;;;17.47;;
15281;SDS011;7742;44.320;19.820;2023-04-03T00:03:17;17.27;;;16.37;;
15281;SDS011;7742;44.320;19.820;2023-04-03T00:05:45;18.77;;;17.73;;
15281;SDS011;7742;44.320;19.820;2023-04-03T00:08:14;18.93;;;17.60;;
15281;SDS011;7742;44.320;19.820;2023-04-03T00:10:40;20.00;;;18.67;;
15281;SDS011;7742;44.320;19.820;2023-04-03T00:13:09;18.13;;;17.23;;
15281;SDS011;7742;44.320;19.820;2023-04-03T00:15:36;18.87;;;17.87;;
15281;SDS011;7742;44.320;19.820;2023-04-03T00:18:03;18.33;;;17.13;;
15281;SDS011;7742;44.320;19.820;2023-04-03T00:20:29;19.90;;;18.80;;
15281;SDS011;7742;44.320;19.820;2023-04-03T00:22:56;19.20;;;18.20;;
15281;SDS011;7742;44.320;19.820;2023-04-03T00:25:23;18.90;;;17.93;;
15281;SDS011;7742;44.320;19.820;2023-04-03T00:27:50;18.67;;;17.67;;
15281;SDS011;7742;44.320;19.820;2023-04-03T00:36:22;17.97;;;17.03;;
15281;SDS011;7742;44.320;19.820;2023-04-03T00:38:49;19.40;;;18.13;;
15281;SDS011;7742;44.320;19.820;2023-04-03T00:41:16;18.80;;;17.80;;
15281;SDS011;7742;44.320;19.820;2023-04-03T00:43:42;17.50;;;16.60;;
15281;SDS011;7742;44.320;19.820;2023-04-03T00:46:10;18.57;;;17.47;;
15281;SDS011;7742;44.320;19.820;2023-04-03T00:48:37;19.97;;;18.57;;
15281;SDS011;7742;44.320;19.820;2023-04-03T00:51:06;18.07;;;16.87;;
15281;SDS011;7742;44.320;19.820;2023-04-03T00:53:35;21.33;;;20.03;;
15281;SDS011;7742;44.320;19.820;2023-04-03T00:56:04;20.87;;;19.57;;
15281;SDS011;7742;44.320;19.820;2023-04-03T00:58:32;19.63;;;18.33;;
15281;SDS011;7742;44.320;19.820;2023-04-03T01:01:00;20.10;;;18.63;;
15281;SDS011;7742;44.320;19.820;2023-04-03T01:03:30;21.30;;;19.90;;
15281;SDS011;7742;44.320;19.820;2023-04-03T01:05:56;21.33;;;19.92;;
15281;SDS011;7742;44.320;19.820;2023-04-03T01:08:23;22.43;;;20.93;;
15281;SDS011;7742;44.320;19.820;2023-04-03T01:10:52;22.23;;;20.70;;
15281;SDS011;7742;44.320;19.820;2023-04-03T01:13:20;22.27;;;20.70;;
15281;SDS011;7742;44.320;19.820;2023-04-03T01:15:47;21.97;;;20.57;;
15281;SDS011;7742;44.320;19.820;2023-04-03T01:18:14;21.83;;;20.23;;
15281;SDS011;7742;44.320;19.820;2023-04-03T01:20:58;21.50;;;20.10;;
15281;SDS011;7742;44.320;19.820;2023-04-03T01:23:32;22.63;;;21.10;;
15281;SDS011;7742;44.320;19.820;2023-04-03T01:26:02;22.23;;;20.63;;
15281;SDS011;7742;44.320;19.820;2023-04-03T01:28:30;22.17;;;20.67;;
15281;SDS011;7742;44.320;19.820;2023-04-03T01:30:59;23.30;;;21.90;;
15281;SDS011;7742;44.320;19.820;2023-04-03T01:33:28;23.42;;;21.83;;
15281;SDS011;7742;44.320;19.820;2023-04-03T01:35:55;22.37;;;20.87;;
15281;SDS011;7742;44.320;19.820;2023-04-03T01:38:22;25.97;;;24.13;;
15281;SDS011;7742;44.320;19.820;2023-04-03T01:40:49;25.80;;;24.00;;
15281;SDS011;7742;44.320;19.820;2023-04-03T01:43:16;27.70;;;25.70;;
15281;SDS011;7742;44.320;19.820;2023-04-03T01:45:42;27.13;;;25.43;;
15281;SDS011;7742;44.320;19.820;2023-04-03T01:48:09;25.53;;;23.67;;
15281;SDS011;7742;44.320;19.820;2023-04-03T01:50:37;26.92;;;25.13;;
15281;SDS011;7742;44.320;19.820;2023-04-03T01:53:04;27.10;;;25.20;;
15281;SDS011;7742;44.320;19.820;2023-04-03T01:55:31;27.17;;;25.27;;
15281;SDS011;7742;44.320;19.820;2023-04-03T01:57:58;26.77;;;24.83;;
15281;SDS011;7742;44.320;19.820;2023-04-03T02:00:25;28.07;;;26.17;;
15281;SDS011;7742;44.320;19.820;2023-04-03T02:02:52;24.87;;;23.17;;
15281;SDS011;7742;44.320;19.820;2023-04-03T02:05:18;26.43;;;24.53;;
15281;SDS011;7742;44.320;19.820;2023-04-03T02:07:47;26.37;;;24.40;;
15281;SDS011;7742;44.320;19.820;2023-04-03T02:10:14;27.08;;;25.10;;
15281;SDS011;7742;44.320;19.820;2023-04-03T02:12:40;27.40;;;25.57;;
15281;SDS011;7742;44.320;19.820;2023-04-03T02:15:07;25.13;;;23.43;;
15281;SDS011;7742;44.320;19.820;2023-04-03T02:17:34;25.53;;;23.73;;
15281;SDS011;7742;44.320;19.820;2023-04-03T02:20:01;25.97;;;24.27;;
15281;SDS011;7742;44.320;19.820;2023-04-03T02:22:28;23.40;;;21.83;;
15281;SDS011;7742;44.320;19.820;2023-04-03T02:24:57;27.90;;;26.03;;
15281;SDS011;7742;44.320;19.820;2023-04-03T02:27:23;25.37;;;23.77;;
15281;SDS011;7742;44.320;19.820;2023-04-03T02:29:50;28.77;;;26.90;;
15281;SDS011;7742;44.320;19.820;2023-04-03T02:32:17;27.63;;;25.83;;
15281;SDS011;7742;44.320;19.820;2023-04-03T02:34:44;27.63;;;25.83;;
15281;SDS011;7742;44.320;19.820;2023-04-03T02:37:11;28.60;;;26.70;;
15281;SDS011;7742;44.320;19.820;2023-04-03T02:39:37;26.63;;;24.93;;
15281;SDS011;7742;44.320;19.820;2023-04-03T02:42:06;28.07;;;26.27;;
15281;SDS011;7742;44.320;19.820;2023-04-03T02:44:33;27.67;;;25.87;;
15281;SDS011;7742;44.320;19.820;2023-04-03T02:47:00;27.55;;;25.85;;
15281;SDS011;7742;44.320;19.820;2023-04-03T02:49:27;28.33;;;26.63;;
15281;SDS011;7742;44.320;19.820;2023-04-03T02:51:54;27.70;;;25.90;;
15281;SDS011;7742;44.320;19.820;2023-04-03T02:54:21;27.77;;;26.07;;
15281;SDS011;7742;44.320;19.820;2023-04-03T02:56:48;27.88;;;26.05;;
15281;SDS011;7742;44.320;19.820;2023-04-03T02:59:16;27.60;;;25.83;;
15281;SDS011;7742;44.320;19.820;2023-04-03T03:01:43;26.90;;;25.03;;
15281;SDS011;7742;44.320;19.820;2023-04-03T03:04:12;25.80;;;24.13;;
15281;SDS011;7742;44.320;19.820;2023-04-03T03:06:38;25.90;;;24.17;;
15281;SDS011;7742;44.320;19.820;2023-04-03T03:09:06;26.67;;;24.87;;
15281;SDS011;7742;44.320;19.820;2023-04-03T03:11:33;26.80;;;24.90;;
15281;SDS011;7742;44.320;19.820;2023-04-03T03:14:00;27.40;;;25.57;;
15281;SDS011;7742;44.320;19.820;2023-04-03T03:16:28;28.37;;;26.43;;
15281;SDS011;7742;44.320;19.820;2023-04-03T03:18:55;28.03;;;26.13;;
15281;SDS011;7742;44.320;19.820;2023-04-03T03:21:21;27.80;;;25.90;;
15281;SDS011;7742;44.320;19.820;2023-04-03T03:23:48;26.07;;;24.27;;
15281;SDS011;7742;44.320;19.820;2023-04-03T03:26:15;26.10;;;24.40;;
15281;SDS011;7742;44.320;19.820;2023-04-03T03:28:42;25.67;;;23.77;;
15281;SDS011;7742;44.320;19.820;2023-04-03T03:31:10;27.60;;;25.80;;
15281;SDS011;7742;44.320;19.820;2023-04-03T03:33:38;27.97;;;25.97;;
15281;SDS011;7742;44.320;19.820;2023-04-03T03:36:06;25.23;;;23.53;;
15281;SDS011;7742;44.320;19.820;2023-04-03T03:38:33;26.37;;;24.47;;
15281;SDS011;7742;44.320;19.820;2023-04-03T03:40:59;28.00;;;26.00;;
15281;SDS011;7742;44.320;19.820;2023-04-03T03:43:26;27.50;;;25.50;;
15281;SDS011;7742;44.320;19.820;2023-04-03T03:45:53;26.77;;;24.87;;
15281;SDS011;7742;44.320;19.820;2023-04-03T03:48:20;27.83;;;25.80;;
15281;SDS011;7742;44.320;19.820;2023-04-03T03:50:49;28.03;;;26.10;;
15281;SDS011;7742;44.320;19.820;2023-04-03T03:53:16;29.00;;;26.83;;
15281;SDS011;7742;44.320;19.820;2023-04-03T03:55:43;29.03;;;26.93;;
15281;SDS011;7742;44.320;19.820;2023-04-03T03:58:10;29.37;;;27.37;;
15281;SDS011;7742;44.320;19.820;2023-04-03T04:00:36;27.50;;;25.50;;
15281;SDS011;7742;44.320;19.820;2023-04-03T04:03:03;27.87;;;25.77;;
15281;SDS011;7742;44.320;19.820;2023-04-03T04:05:30;28.23;;;26.03;;
15281;SDS011;7742;44.320;19.820;2023-04-03T04:07:58;29.53;;;27.23;;
15281;SDS011;7742;44.320;19.820;2023-04-03T04:10:25;28.37;;;26.17;;
15281;SDS011;7742;44.320;19.820;2023-04-03T04:12:52;29.10;;;26.90;;
15281;SDS011;7742;44.320;19.820;2023-04-03T04:15:19;27.23;;;25.03;;
15281;SDS011;7742;44.320;19.820;2023-04-03T04:17:47;28.33;;;26.20;;
15281;SDS011;7742;44.320;19.820;2023-04-03T04:20:14;29.73;;;27.53;;
15281;SDS011;7742;44.320;19.820;2023-04-03T04:22:40;31.13;;;28.70;;
15281;SDS011;7742;44.320;19.820;2023-04-03T04:25:09;26.87;;;24.87;;
15281;SDS011;7742;44.320;19.820;2023-04-03T04:27:36;27.83;;;25.73;;
15281;SDS011;7742;44.320;19.820;2023-04-03T04:30:03;28.23;;;26.03;;
15281;SDS011;7742;44.320;19.820;2023-04-03T04:32:30;27.73;;;25.70;;
15281;SDS011;7742;44.320;19.820;2023-04-03T04:34:57;30.00;;;27.77;;
15281;SDS011;7742;44.320;19.820;2023-04-03T04:37:24;24.00;;;22.10;;
15281;SDS011;7742;44.320;19.820;2023-04-03T04:39:51;28.00;;;25.80;;
15281;SDS011;7742;44.320;19.820;2023-04-03T04:42:19;27.53;;;25.47;;
15281;SDS011;7742;44.320;19.820;2023-04-03T04:44:46;26.63;;;24.53;;
15281;SDS011;7742;44.320;19.820;2023-04-03T04:47:12;24.73;;;22.80;;
15281;SDS011;7742;44.320;19.820;2023-04-03T04:49:39;23.37;;;21.67;;
15281;SDS011;7742;44.320;19.820;2023-04-03T04:52:06;21.97;;;20.37;;
15281;SDS011;7742;44.320;19.820;2023-04-03T04:54:33;22.10;;;20.50;;
15281;SDS011;7742;44.320;19.820;2023-04-03T04:57:00;21.73;;;20.03;;
15281;SDS011;7742;44.320;19.820;2023-04-03T04:59:28;18.00;;;16.60;;
15281;SDS011;7742;44.320;19.820;2023-04-03T05:01:55;19.40;;;17.97;;
15281;SDS011;7742;44.320;19.820;2023-04-03T05:04:22;19.60;;;18.20;;
15281;SDS011;7742;44.320;19.820;2023-04-03T05:06:48;18.67;;;17.37;;
15281;SDS011;7742;44.320;19.820;2023-04-03T05:09:15;17.93;;;16.57;;
15281;SDS011;7742;44.320;19.820;2023-04-03T05:11:43;17.60;;;16.30;;
15281;SDS011;7742;44.320;19.820;2023-04-03T05:14:10;16.83;;;15.57;;
15281;SDS011;7742;44.320;19.820;2023-04-03T05:16:38;17.47;;;16.20;;
15281;SDS011;7742;44.320;19.820;2023-04-03T05:19:05;18.43;;;17.13;;
15281;SDS011;7742;44.320;19.820;2023-04-03T05:21:32;18.83;;;17.47;;
15281;SDS011;7742;44.320;19.820;2023-04-03T05:23:58;17.53;;;16.30;;
15281;SDS011;7742;44.320;19.820;2023-04-03T05:26:27;17.83;;;16.63;;
15281;SDS011;7742;44.320;19.820;2023-04-03T05:28:54;17.13;;;15.93;;
15281;SDS011;7742;44.320;19.820;2023-04-03T05:31:21;17.60;;;16.30;;
15281;SDS011;7742;44.320;19.820;2023-04-03T05:33:50;17.70;;;16.50;;
15281;SDS011;7742;44.320;19.820;2023-04-03T05:36:16;17.00;;;15.90;;
15281;SDS011;7742;44.320;19.820;2023-04-03T05:38:43;17.40;;;16.23;;
15281;SDS011;7742;44.320;19.820;2023-04-03T05:41:10;18.23;;;17.03;;
15281;SDS011;7742;44.320;19.820;2023-04-03T05:43:37;17.50;;;16.30;;
15281;SDS011;7742;44.320;19.820;2023-04-03T05:46:04;20.15;;;18.95;;
15281;SDS011;7742;44.320;19.820;2023-04-03T05:48:33;21.33;;;20.02;;
15281;SDS011;7742;44.320;19.820;2023-04-03T05:51:01;21.35;;;20.05;;
15281;SDS011;7742;44.320;19.820;2023-04-03T05:53:29;21.73;;;20.42;;
15281;SDS011;7742;44.320;19.820;2023-04-03T05:55:57;22.50;;;21.20;;
15281;SDS011;7742;44.320;19.820;2023-04-03T05:58:24;23.52;;;22.13;;
15281;SDS011;7742;44.320;19.820;2023-04-03T06:00:51;22.90;;;21.50;;
15281;SDS011;7742;44.320;19.820;2023-04-03T06:03:18;22.58;;;21.17;;
15281;SDS011;7742;44.320;19.820;2023-04-03T06:05:45;24.57;;;22.97;;
15281;SDS011;7742;44.320;19.820;2023-04-03T06:08:14;22.38;;;20.88;;
15281;SDS011;7742;44.320;19.820;2023-04-03T06:10:40;22.15;;;20.73;;
15281;SDS011;7742;44.320;19.820;2023-04-03T06:13:07;24.08;;;22.48;;
15281;SDS011;7742;44.320;19.820;2023-04-03T06:15:34;21.52;;;20.23;;
15281;SDS011;7742;44.320;19.820;2023-04-03T06:18:01;21.40;;;20.00;;
15281;SDS011;7742;44.320;19.820;2023-04-03T06:20:28;22.10;;;20.80;;
15281;SDS011;7742;44.320;19.820;2023-04-03T06:22:56;23.55;;;22.15;;
15281;SDS011;7742;44.320;19.820;2023-04-03T06:25:24;22.03;;;20.70;;
15281;SDS011;7742;44.320;19.820;2023-04-03T06:27:51;22.05;;;20.70;;
15281;SDS011;7742;44.320;19.820;2023-04-03T06:30:20;22.15;;;20.85;;
15281;SDS011;7742;44.320;19.820;2023-04-03T06:32:47;21.45;;;20.15;;
15281;SDS011;7742;44.320;19.820;2023-04-03T06:35:24;22.35;;;20.95;;
15281;SDS011;7742;44.320;19.820;2023-04-03T06:37:52;21.70;;;20.40;;
15281;SDS011;7742;44.320;19.820;2023-04-03T06:40:20;20.83;;;19.50;;
15281;SDS011;7742;44.320;19.820;2023-04-03T06:42:49;20.48;;;19.27;;
15281;SDS011;7742;44.320;19.820;2023-04-03T06:45:16;19.92;;;18.80;;
15281;SDS011;7742;44.320;19.820;2023-04-03T06:47:43;20.02;;;18.83;;
15281;SDS011;7742;44.320;19.820;2023-04-03T06:50:10;19.63;;;18.52;;
15281;SDS011;7742;44.320;19.820;2023-04-03T06:52:39;19.55;;;18.50;;
15281;SDS011;7742;44.320;19.820;2023-04-03T06:55:06;19.50;;;18.40;;
15281;SDS011;7742;44.320;19.820;2023-04-03T06:57:33;18.52;;;17.52;;
15281;SDS011;7742;44.320;19.820;2023-04-03T07:00:02;17.38;;;16.48;;
15281;SDS011;7742;44.320;19.820;2023-04-03T07:02:29;17.80;;;16.80;;
15281;SDS011;7742;44.320;19.820;2023-04-03T07:04:56;17.67;;;16.77;;
15281;SDS011;7742;44.320;19.820;2023-04-03T07:07:23;18.47;;;17.47;;
15281;SDS011;7742;44.320;19.820;2023-04-03T07:09:49;17.50;;;16.60;;
15281;SDS011;7742;44.320;19.820;2023-04-03T07:12:16;17.13;;;16.23;;
15281;SDS011;7742;44.320;19.820;2023-04-03T07:14:43;16.42;;;15.52;;
15281;SDS011;7742;44.320;19.820;2023-04-03T07:17:11;17.05;;;16.15;;
15281;SDS011;7742;44.320;19.820;2023-04-03T07:19:38;16.80;;;15.90;;
15281;SDS011;7742;44.320;19.820;2023-04-03T07:22:05;16.75;;;15.85;;
15281;SDS011;7742;44.320;19.820;2023-04-03T07:24:32;15.70;;;14.90;;
15281;SDS011;7742;44.320;19.820;2023-04-03T07:27:00;16.27;;;15.38;;
15281;SDS011;7742;44.320;19.820;2023-04-03T07:29:27;17.58;;;16.67;;
15281;SDS011;7742;44.320;19.820;2023-04-03T07:31:54;16.25;;;15.45;;
15281;SDS011;7742;44.320;19.820;2023-04-03T07:34:23;16.33;;;15.43;;
15281;SDS011;7742;44.320;19.820;2023-04-03T07:36:50;16.10;;;15.20;;
15281;SDS011;7742;44.320;19.820;2023-04-03T07:39:17;15.82;;;15.02;;
15281;SDS011;7742;44.320;19.820;2023-04-03T07:41:44;16.63;;;15.73;;
15281;SDS011;7742;44.320;19.820;2023-04-03T07:44:11;15.50;;;14.70;;
15281;SDS011;7742;44.320;19.820;2023-04-03T07:46:37;15.35;;;14.55;;
15281;SDS011;7742;44.320;19.820;2023-04-03T07:49:05;16.10;;;15.20;;
15281;SDS011;7742;44.320;19.820;2023-04-03T07:51:33;16.33;;;15.43;;
15281;SDS011;7742;44.320;19.820;2023-04-03T07:54:01;16.10;;;15.20;;
15281;SDS011;7742;44.320;19.820;2023-04-03T07:56:27;15.77;;;14.93;;
15281;SDS011;7742;44.320;19.820;2023-04-03T07:58:54;16.08;;;15.18;;
15281;SDS011;7742;44.320;19.820;2023-04-03T08:01:21;14.93;;;14.13;;
15281;SDS011;7742;44.320;19.820;2023-04-03T08:03:48;16.48;;;15.57;;
15281;SDS011;7742;44.320;19.820;2023-04-03T08:06:15;14.68;;;13.95;;
15281;SDS011;7742;44.320;19.820;2023-04-03T08:08:44;14.90;;;14.10;;
15281;SDS011;7742;44.320;19.820;2023-04-03T08:11:11;15.73;;;14.82;;
15281;SDS011;7742;44.320;19.820;2023-04-03T08:13:38;15.60;;;14.80;;
15281;SDS011;7742;44.320;19.820;2023-04-03T08:16:09;14.23;;;13.43;;
15281;SDS011;7742;44.320;19.820;2023-04-03T08:18:36;13.38;;;12.68;;
15281;SDS011;7742;44.320;19.820;2023-04-03T08:21:07;14.23;;;13.52;;
15281;SDS011;7742;44.320;19.820;2023-04-03T08:23:34;13.75;;;13.05;;
15281;SDS011;7742;44.320;19.820;2023-04-03T08:26:06;13.35;;;12.65;;
15281;SDS011;7742;44.320;19.820;2023-04-03T08:28:33;14.43;;;13.68;;
15281;SDS011;7742;44.320;19.820;2023-04-03T08:31:02;12.57;;;11.98;;
15281;SDS011;7742;44.320;19.820;2023-04-03T08:33:29;13.02;;;12.43;;
15281;SDS011;7742;44.320;19.820;2023-04-03T08:35:56;11.90;;;11.32;;
15281;SDS011;7742;44.320;19.820;2023-04-03T08:38:23;13.40;;;12.80;;
15281;SDS011;7742;44.320;19.820;2023-04-03T08:40:59;12.63;;;12.03;;
15281;SDS011;7742;44.320;19.820;2023-04-03T08:43:30;12.65;;;12.05;;
15281;SDS011;7742;44.320;19.820;2023-04-03T08:46:01;14.35;;;13.65;;
15281;SDS011;7742;44.320;19.820;2023-04-03T08:48:31;14.38;;;13.77;;
15281;SDS011;7742;44.320;19.820;2023-04-03T08:51:00;12.38;;;11.88;;
15281;SDS011;7742;44.320;19.820;2023-04-03T08:53:28;13.97;;;13.27;;
15281;SDS011;7742;44.320;19.820;2023-04-03T08:55:57;12.85;;;12.25;;
15281;SDS011;7742;44.320;19.820;2023-04-03T08:58:25;12.30;;;11.70;;
15281;SDS011;7742;44.320;19.820;2023-04-03T09:00:55;13.00;;;12.40;;
15281;SDS011;7742;44.320;19.820;2023-04-03T09:03:23;13.50;;;12.90;;
15281;SDS011;7742;44.320;19.820;2023-04-03T09:05:51;13.05;;;12.45;;
15281;SDS011;7742;44.320;19.820;2023-04-03T09:08:22;13.57;;;12.93;;
15281;SDS011;7742;44.320;19.820;2023-04-03T09:10:49;11.98;;;11.48;;
15281;SDS011;7742;44.320;19.820;2023-04-03T09:13:21;13.02;;;12.43;;
15281;SDS011;7742;44.320;19.820;2023-04-03T09:15:51;12.73;;;12.13;;
15281;SDS011;7742;44.320;19.820;2023-04-03T09:18:21;13.50;;;12.90;;
15281;SDS011;7742;44.320;19.820;2023-04-03T09:20:53;12.27;;;11.77;;
15281;SDS011;7742;44.320;19.820;2023-04-03T09:23:24;12.82;;;12.23;;
15281;SDS011;7742;44.320;19.820;2023-04-03T09:25:53;12.95;;;12.35;;
15281;SDS011;7742;44.320;19.820;2023-04-03T09:28:21;12.90;;;12.40;;
15281;SDS011;7742;44.320;19.820;2023-04-03T09:30:48;13.50;;;12.90;;
15281;SDS011;7742;44.320;19.820;2023-04-03T09:33:15;13.10;;;12.60;;
15281;SDS011;7742;44.320;19.820;2023-04-03T09:35:44;12.90;;;12.35;;
15281;SDS011;7742;44.320;19.820;2023-04-03T09:38:16;13.05;;;12.55;;
15281;SDS011;7742;44.320;19.820;2023-04-03T09:40:43;13.02;;;12.52;;
15281;SDS011;7742;44.320;19.820;2023-04-03T09:43:21;13.25;;;12.75;;
15281;SDS011;7742;44.320;19.820;2023-04-03T09:45:48;12.07;;;11.57;;
15281;SDS011;7742;44.320;19.820;2023-04-03T09:48:17;12.20;;;11.70;;
15281;SDS011;7742;44.320;19.820;2023-04-03T09:50:58;13.55;;;12.95;;
15281;SDS011;7742;44.320;19.820;2023-04-03T09:53:30;13.27;;;12.68;;
15281;SDS011;7742;44.320;19.820;2023-04-03T09:55:57;13.40;;;12.80;;
15281;SDS011;7742;44.320;19.820;2023-04-03T09:58:25;13.63;;;13.02;;
15281;SDS011;7742;44.320;19.820;2023-04-03T10:00:53;12.73;;;12.23;;
15281;SDS011;7742;44.320;19.820;2023-04-03T10:03:23;12.30;;;11.80;;
15281;SDS011;7742;44.320;19.820;2023-04-03T10:05:51;12.10;;;11.60;;
15281;SDS011;7742;44.320;19.820;2023-04-03T10:08:22;13.47;;;12.87;;
15281;SDS011;7742;44.320;19.820;2023-04-03T10:11:05;13.43;;;12.82;;
15281;SDS011;7742;44.320;19.820;2023-04-03T10:13:32;14.38;;;13.68;;
15281;SDS011;7742;44.320;19.820;2023-04-03T10:16:00;14.38;;;13.77;;
15281;SDS011;7742;44.320;19.820;2023-04-03T10:18:29;14.90;;;14.20;;
15281;SDS011;7742;44.320;19.820;2023-04-03T10:20:59;15.32;;;14.63;;
15281;SDS011;7742;44.320;19.820;2023-04-03T10:23:31;16.35;;;15.55;;
15281;SDS011;7742;44.320;19.820;2023-04-03T10:26:02;16.65;;;15.85;;
15281;SDS011;7742;44.320;19.820;2023-04-03T10:28:33;14.90;;;14.20;;
15281;SDS011;7742;44.320;19.820;2023-04-03T10:31:03;15.70;;;14.90;;
15281;SDS011;7742;44.320;19.820;2023-04-03T10:33:36;15.10;;;14.35;;
15281;SDS011;7742;44.320;19.820;2023-04-03T10:36:12;16.57;;;15.73;;
15281;SDS011;7742;44.320;19.820;2023-04-03T10:38:46;15.90;;;15.10;;
15281;SDS011;7742;44.320;19.820;2023-04-03T10:41:16;15.85;;;15.05;;
15281;SDS011;7742;44.320;19.820;2023-04-03T10:43:49;16.60;;;15.70;;
15281;SDS011;7742;44.320;19.820;2023-04-03T10:46:18;16.63;;;15.73;;
15281;SDS011;7742;44.320;19.820;2023-04-03T10:48:57;18.15;;;17.15;;
15281;SDS011;7742;44.320;19.820;2023-04-03T10:51:28;18.35;;;17.35;;
15281;SDS011;7742;44.320;19.820;2023-04-03T10:53:59;21.87;;;20.57;;
15281;SDS011;7742;44.320;19.820;2023-04-03T10:56:30;21.63;;;20.33;;
15281;SDS011;7742;44.320;19.820;2023-04-03T10:58:58;21.90;;;20.42;;
15281;SDS011;7742;44.320;19.820;2023-04-03T11:01:30;24.42;;;22.92;;
15281;SDS011;7742;44.320;19.820;2023-04-03T11:03:58;24.30;;;22.75;;
15281;SDS011;7742;44.320;19.820;2023-04-03T11:06:26;23.90;;;22.40;;
15281;SDS011;7742;44.320;19.820;2023-04-03T11:08:55;22.77;;;21.38;;
15281;SDS011;7742;44.320;19.820;2023-04-03T11:11:25;22.77;;;21.38;;
15281;SDS011;7742;44.320;19.820;2023-04-03T11:13:54;21.15;;;19.95;;
15281;SDS011;7742;44.320;19.820;2023-04-03T11:16:23;21.03;;;19.83;;
15281;SDS011;7742;44.320;19.820;2023-04-03T11:18:52;21.02;;;19.80;;
15281;SDS011;7742;44.320;19.820;2023-04-03T11:21:19;21.95;;;20.58;;
15281;SDS011;7742;44.320;19.820;2023-04-03T11:23:47;20.83;;;19.63;;
15281;SDS011;7742;44.320;19.820;2023-04-03T11:26:15;21.10;;;19.88;;
15281;SDS011;7742;44.320;19.820;2023-04-03T11:28:43;22.27;;;20.97;;
15281;SDS011;7742;44.320;19.820;2023-04-03T11:31:15;20.17;;;19.08;;
15281;SDS011;7742;44.320;19.820;2023-04-03T11:33:45;18.88;;;17.80;;
15281;SDS011;7742;44.320;19.820;2023-04-03T11:36:18;27.23;;;25.63;;
15281;SDS011;7742;44.320;19.820;2023-04-03T11:38:47;20.77;;;19.57;;
15281;SDS011;7742;44.320;19.820;2023-04-03T11:41:14;20.50;;;19.20;;
15281;SDS011;7742;44.320;19.820;2023-04-03T11:43:42;19.98;;;18.88;;
15281;SDS011;7742;44.320;19.820;2023-04-03T11:46:11;20.40;;;19.10;;
15281;SDS011;7742;44.320;19.820;2023-04-03T11:48:50;17.60;;;16.50;;
15281;SDS011;7742;44.320;19.820;2023-04-03T11:56:51;21.27;;;19.98;;
15281;SDS011;7742;44.320;19.820;2023-04-03T11:59:24;22.20;;;20.80;;
15281;SDS011;7742;44.320;19.820;2023-04-03T12:01:54;24.40;;;22.90;;
15281;SDS011;7742;44.320;19.820;2023-04-03T12:04:55;22.52;;;21.13;;
15281;SDS011;7742;44.320;19.820;2023-04-03T12:07:16;23.05;;;21.55;;
15281;SDS011;7742;44.320;19.820;2023-04-03T12:12:30;24.43;;;22.93;;
15281;SDS011;7742;44.320;19.820;2023-04-03T12:15:11;25.60;;;23.90;;
15281;SDS011;7742;44.320;19.820;2023-04-03T12:17:40;25.77;;;23.98;;
15281;SDS011;7742;44.320;19.820;2023-04-03T12:28:11;27.20;;;25.40;;
15281;SDS011;7742;44.320;19.820;2023-04-03T12:30:38;26.95;;;25.02;;
15281;SDS011;7742;44.320;19.820;2023-04-03T12:33:17;26.55;;;24.30;;
15281;SDS011;7742;44.320;19.820;2023-04-03T12:35:49;27.00;;;24.30;;
15281;SDS011;7742;44.320;19.820;2023-04-03T12:38:22;26.47;;;24.27;;
15281;SDS011;7742;44.320;19.820;2023-04-03T12:40:51;27.88;;;25.38;;
15281;SDS011;7742;44.320;19.820;2023-04-03T12:43:34;28.95;;;26.25;;
15281;SDS011;7742;44.320;19.820;2023-04-03T12:46:04;31.38;;;28.08;;
15281;SDS011;7742;44.320;19.820;2023-04-03T12:48:39;44.70;;;30.67;;
15281;SDS011;7742;44.320;19.820;2023-04-03T12:51:13;46.47;;;29.00;;
15281;SDS011;7742;44.320;19.820;2023-04-03T12:53:40;44.95;;;30.50;;
15281;SDS011;7742;44.320;19.820;2023-04-03T12:56:20;44.13;;;31.10;;
15281;SDS011;7742;44.320;19.820;2023-04-03T12:58:48;42.22;;;33.13;;
15281;SDS011;7742;44.320;19.820;2023-04-03T13:01:15;42.97;;;33.60;;
15281;SDS011;7742;44.320;19.820;2023-04-03T13:03:45;35.35;;;32.20;;
15281;SDS011;7742;44.320;19.820;2023-04-03T13:06:14;37.50;;;34.47;;
15281;SDS011;7742;44.320;19.820;2023-04-03T13:08:48;37.40;;;34.47;;
15281;SDS011;7742;44.320;19.820;2023-04-03T13:11:15;36.45;;;33.65;;
15281;SDS011;7742;44.320;19.820;2023-04-03T13:13:53;37.22;;;34.30;;
15281;SDS011;7742;44.320;19.820;2023-04-03T13:16:20;37.75;;;34.85;;
15281;SDS011;7742;44.320;19.820;2023-04-03T13:18:52;39.30;;;36.28;;
15281;SDS011;7742;44.320;19.820;2023-04-03T13:21:19;38.08;;;35.25;;
15281;SDS011;7742;44.320;19.820;2023-04-03T13:23:48;36.20;;;33.60;;
15281;SDS011;7742;44.320;19.820;2023-04-03T13:26:16;34.88;;;32.38;;
15281;SDS011;7742;44.320;19.820;2023-04-03T13:28:44;33.03;;;30.73;;
15281;SDS011;7742;44.320;19.820;2023-04-03T13:31:17;33.05;;;30.63;;
15281;SDS011;7742;44.320;19.820;2023-04-03T13:33:52;33.22;;;30.83;;
15281;SDS011;7742;44.320;19.820;2023-04-03T13:36:20;33.33;;;31.02;;
15281;SDS011;7742;44.320;19.820;2023-04-03T13:38:57;33.77;;;31.47;;
15281;SDS011;7742;44.320;19.820;2023-04-03T13:41:25;33.00;;;30.70;;
15281;SDS011;7742;44.320;19.820;2023-04-03T13:43:52;33.22;;;30.92;;
15281;SDS011;7742;44.320;19.820;2023-04-03T13:46:24;32.60;;;30.40;;
15281;SDS011;7742;44.320;19.820;2023-04-03T13:48:53;31.98;;;29.80;;
15281;SDS011;7742;44.320;19.820;2023-04-03T13:51:21;34.28;;;31.85;;
15281;SDS011;7742;44.320;19.820;2023-04-03T13:53:49;34.53;;;32.05;;
15281;SDS011;7742;44.320;19.820;2023-04-03T13:56:18;34.78;;;32.28;;
15281;SDS011;7742;44.320;19.820;2023-04-03T13:58:53;36.28;;;33.67;;
15281;SDS011;7742;44.320;19.820;2023-04-03T14:01:21;35.65;;;33.05;;
15281;SDS011;7742;44.320;19.820;2023-04-03T14:03:54;33.15;;;30.85;;
15281;SDS011;7742;44.320;19.820;2023-04-03T14:06:21;33.30;;;31.08;;
15281;SDS011;7742;44.320;19.820;2023-04-03T14:08:47;33.10;;;30.90;;
15281;SDS011;7742;44.320;19.820;2023-04-03T14:11:16;34.17;;;31.88;;
15281;SDS011;7742;44.320;19.820;2023-04-03T14:13:44;34.10;;;31.88;;
15281;SDS011;7742;44.320;19.820;2023-04-03T14:16:13;32.75;;;30.45;;
15281;SDS011;7742;44.320;19.820;2023-04-03T14:18:40;33.90;;;31.45;;
15281;SDS011;7742;44.320;19.820;2023-04-03T14:21:09;33.67;;;31.38;;
15281;SDS011;7742;44.320;19.820;2023-04-03T14:23:37;34.03;;;31.67;;
15281;SDS011;7742;44.320;19.820;2023-04-03T14:26:04;34.47;;;32.17;;
15281;SDS011;7742;44.320;19.820;2023-04-03T14:28:31;38.22;;;35.65;;
15281;SDS011;7742;44.320;19.820;2023-04-03T14:30:58;35.80;;;33.20;;
15281;SDS011;7742;44.320;19.820;2023-04-03T14:33:25;39.13;;;36.35;;
15281;SDS011;7742;44.320;19.820;2023-04-03T14:35:54;40.83;;;37.88;;
15281;SDS011;7742;44.320;19.820;2023-04-03T14:38:24;41.92;;;38.83;;
15281;SDS011;7742;44.320;19.820;2023-04-03T14:40:52;39.33;;;36.33;;
15281;SDS011;7742;44.320;19.820;2023-04-03T14:43:19;41.13;;;37.87;;
15281;SDS011;7742;44.320;19.820;2023-04-03T14:45:47;40.22;;;37.22;;
15281;SDS011;7742;44.320;19.820;2023-04-03T14:48:15;41.30;;;38.10;;
15281;SDS011;7742;44.320;19.820;2023-04-03T14:50:43;39.35;;;36.45;;